Time;durP1;ratioP1;P1;durP2;ratioP2;P2;SDS_P1;SDS_P2;PMS_P1;PMS_P2;Temp;Humidity;BMP_temperature;BMP_pressure;BME280_temperature;BME280_humidity;BME280_pressure;Samples;Min_cycle;Max_cycle;Signal;HPM_P1;HPM_P2
2022/11/16 06:04:36;;;;;;;;;2.25;1.00;;;;;11.14;74.64;99845.78;3052477;22;45419;-85
2022/11/16 06:05:47;;;;;;;;;2.75;2.50;;;;;11.14;74.55;99845.78;3058538;22;46391;-85
2022/11/16 06:06:57;;;;;;;;;3.25;1.00;;;;;11.13;74.47;99842.31;3059447;22;45228;-85
2022/11/16 06:08:07;;;;;;;;;2.75;2.00;;;;;11.13;74.39;99844.09;3059073;22;46026;-85
2022/11/16 06:09:18;;;;;;;;;2.00;2.00;;;;;11.12;74.54;99848.50;3043374;22;45278;-84
2022/11/16 06:10:28;;;;;;;;;3.25;1.75;;;;;11.11;74.45;99838.88;3048145;22;45284;-85
2022/11/16 06:11:38;;;;;;;;;3.50;1.25;;;;;11.10;74.31;99844.22;3043525;22;44616;-86
2022/11/16 06:12:49;;;;;;;;;0.00;0.00;;;;;11.08;74.21;99840.84;3046781;22;45998;-85
2022/11/16 06:13:59;;;;;;;;;1.75;1.75;;;;;11.06;74.37;99842.69;3058906;22;45309;-86
2022/11/16 06:15:09;;;;;;;;;2.75;1.00;;;;;11.04;74.44;99840.13;3042100;22;46852;-85
2022/11/16 06:16:20;;;;;;;;;2.00;1.50;;;;;11.03;74.56;99847.19;3047608;22;45301;-85
2022/11/16 06:17:32;;;;;;;;;2.25;2.00;;;;;11.02;74.30;99841.97;3042345;22;47156;-85
2022/11/16 06:18:44;;;;;;;;;4.00;2.00;;;;;11.00;74.75;99849.09;3047283;22;45150;-85
2022/11/16 06:19:55;;;;;;;;;2.00;2.00;;;;;10.98;74.58;99849.19;3059172;22;45301;-85
2022/11/16 06:21:06;;;;;;;;;2.00;2.00;;;;;11.00;74.72;99851.72;3059854;22;44779;-85
2022/11/16 06:22:16;;;;;;;;;3.00;1.75;;;;;10.98;74.59;99851.81;3043155;22;46393;-85
2022/11/16 06:23:27;;;;;;;;;2.00;1.75;;;;;10.99;74.40;99853.50;3047242;22;44737;-85
2022/11/16 06:24:37;;;;;;;;;4.75;2.50;;;;;10.98;74.54;99849.19;3059001;22;45269;-84
2022/11/16 06:25:54;;;;;;;;;2.00;2.00;;;;;10.99;74.66;99850.88;3042789;22;45246;-84
2022/11/16 06:27:04;;;;;;;;;2.00;1.00;;;;;11.00;74.93;99849.09;3048803;22;46547;-85
2022/11/16 06:28:14;;;;;;;;;2.75;1.00;;;;;11.00;74.56;99852.59;3058852;22;45313;-85
2022/11/16 06:29:25;;;;;;;;;2.00;2.00;;;;;10.99;74.68;99850.00;3059052;22;45411;-85
2022/11/16 06:30:37;;;;;;;;;3.75;2.00;;;;;10.99;74.58;99852.63;3042796;22;45184;-85
2022/11/16 06:31:47;;;;;;;;;2.50;2.00;;;;;10.99;74.69;99856.13;3032016;22;47517;-85
2022/11/16 06:32:57;;;;;;;;;1.00;1.00;;;;;10.99;74.50;99850.00;3031826;22;45345;-86
2022/11/16 06:34:08;;;;;;;;;3.00;1.00;;;;;10.99;74.24;99847.38;3047027;22;45489;-85
2022/11/16 06:35:18;;;;;;;;;1.75;1.00;;;;;10.98;74.61;99849.19;3058726;22;45335;-85
2022/11/16 06:36:28;;;;;;;;;3.50;2.00;;;;;10.98;74.86;99843.06;3059006;22;46276;-84
2022/11/16 06:37:39;;;;;;;;;2.00;2.00;;;;;10.98;74.60;99846.56;3042789;22;45243;-85
2022/11/16 06:38:49;;;;;;;;;2.00;2.00;;;;;10.96;74.49;99843.16;3047260;22;45285;-85
2022/11/16 06:40:00;;;;;;;;;4.00;2.00;;;;;10.97;74.81;99843.97;3059307;22;44627;-85
2022/11/16 06:41:10;;;;;;;;;2.75;1.00;;;;;10.97;74.88;99838.72;3058715;22;45269;-86
2022/11/16 06:42:20;;;;;;;;;2.00;1.00;;;;;10.97;74.71;99838.72;3042806;22;44552;-85
2022/11/16 06:43:31;;;;;;;;;3.50;0.50;;;;;10.97;74.74;99838.72;3047569;22;45895;-85
2022/11/16 06:44:41;;;;;;;;;2.50;2.00;;;;;10.98;74.66;99843.91;3042459;22;44609;-85
2022/11/16 06:45:54;;;;;;;;;4.50;3.00;;;;;10.97;74.78;99839.56;3046871;22;45238;-85
2022/11/16 06:47:05;;;;;;;;;2.00;1.00;;;;;10.99;74.74;99847.38;3042872;22;44704;-85
2022/11/16 06:48:16;;;;;;;;;2.00;2.00;;;;;10.98;74.87;99843.91;3031704;22;47073;-85
2022/11/16 06:49:26;;;;;;;;;2.00;2.00;;;;;10.98;74.57;99843.91;3047385;22;45310;-86
2022/11/16 06:50:37;;;;;;;;;1.50;1.25;;;;;10.99;74.54;99836.88;3059168;22;45281;-84
2022/11/16 06:51:47;;;;;;;;;3.25;2.00;;;;;11.00;74.53;99838.56;3059405;22;45355;-85
2022/11/16 06:52:59;;;;;;;;;3.00;1.00;;;;;11.02;74.90;99837.56;3059317;22;46415;-85
2022/11/16 06:54:09;;;;;;;;;2.00;1.25;;;;;11.03;75.16;99831.41;3059721;22;45101;-85
2022/11/16 06:55:20;;;;;;;;;1.50;1.50;;;;;11.06;74.96;99832.19;3059365;22;45356;-85
2022/11/16 06:56:33;;;;;;;;;2.00;2.00;;;;;11.07;74.92;99833.84;3042812;22;45251;-85
2022/11/16 06:57:45;;;;;;;;;2.00;2.00;;;;;11.08;74.98;99833.81;3048074;22;45331;-85
2022/11/16 06:58:56;;;;;;;;;2.00;2.00;;;;;11.10;74.86;99838.97;3059789;22;44531;-85
2022/11/16 07:00:08;;;;;;;;;2.00;2.00;;;;;11.10;74.94;99834.56;3043208;22;47950;-85
2022/11/16 07:01:18;;;;;;;;;4.00;1.50;;;;;11.12;75.08;99831.84;3048527;22;45261;-85
2022/11/16 07:02:29;;;;;;;;;4.75;3.00;;;;;11.12;74.97;99835.34;3059632;22;45257;-85
2022/11/16 07:03:39;;;;;;;;;2.00;2.00;;;;;11.14;75.00;99837.88;3059464;22;45331;-84
2022/11/16 07:04:49;;;;;;;;;3.50;2.00;;;;;11.18;75.17;99833.34;3059435;22;46053;-84
2022/11/16 07:06:08;;;;;;;;;4.00;2.25;;;;;11.20;75.02;99834.97;3042936;22;45105;-85
2022/11/16 07:07:18;;;;;;;;;3.00;3.00;;;;;11.23;74.98;99833.97;3050045;22;45379;-85
2022/11/16 07:08:29;;;;;;;;;3.25;2.00;;;;;11.25;75.20;99832.97;3059819;22;45163;-84
2022/11/16 07:09:39;;;;;;;;;4.75;2.50;;;;;11.29;75.10;99835.41;3043207;22;48265;-85
2022/11/16 07:10:49;;;;;;;;;4.00;2.00;;;;;11.32;74.87;99849.28;3048194;22;45187;-85
2022/11/16 07:12:00;;;;;;;;;2.00;2.00;;;;;11.34;74.82;99849.19;3059515;22;45249;-85
2022/11/16 07:13:10;;;;;;;;;4.75;2.50;;;;;11.37;75.09;99841.16;3059955;22;44553;-85
2022/11/16 07:14:20;;;;;;;;;6.00;4.00;;;;;11.39;75.26;99839.28;3059606;22;45096;-85
2022/11/16 07:15:31;;;;;;;;;2.00;2.00;;;;;11.41;75.05;99841.84;3042742;22;45210;-85
2022/11/16 07:16:42;;;;;;;;;1.75;1.75;;;;;11.44;75.06;99841.66;3032432;22;47519;-85
2022/11/16 07:17:52;;;;;;;;;4.00;2.25;;;;;11.47;74.90;99845.00;3048146;22;45132;-85
2022/11/16 07:19:03;;;;;;;;;5.25;3.75;;;;;11.50;74.98;99848.41;3042533;22;49945;-85
2022/11/16 07:20:14;;;;;;;;;6.50;3.00;;;;;11.52;74.91;99846.56;3032690;22;45100;-84
2022/11/16 07:21:24;;;;;;;;;3.25;3.25;;;;;11.54;75.06;99848.19;3047896;22;46300;-86
2022/11/16 07:22:36;;;;;;;;;2.25;2.25;;;;;11.55;74.79;99849.03;3059361;22;44538;-84
2022/11/16 07:23:47;;;;;;;;;4.25;2.75;;;;;11.58;74.94;99848.88;3059503;22;45280;-85
2022/11/16 07:24:57;;;;;;;;;3.50;2.75;;;;;11.61;74.82;99851.34;3059292;22;45287;-85
2022/11/16 07:26:09;;;;;;;;;3.00;3.00;;;;;11.61;74.70;99847.84;3042715;22;48121;-84
2022/11/16 07:27:20;;;;;;;;;5.50;4.00;;;;;11.62;74.69;99850.41;3048417;22;44588;-85
2022/11/16 07:28:31;;;;;;;;;4.25;3.25;;;;;11.63;74.79;99846.00;3059665;22;45565;-85
2022/11/16 07:29:41;;;;;;;;;4.25;2.50;;;;;11.66;74.71;99848.47;3059785;22;45085;-85
2022/11/16 07:30:51;;;;;;;;;5.25;3.00;;;;;11.67;74.90;99851.03;3059607;22;46074;-85
2022/11/16 07:32:02;;;;;;;;;4.25;3.50;;;;;11.68;74.92;99847.44;3043701;22;44571;-85
2022/11/16 07:33:12;;;;;;;;;5.00;3.00;;;;;11.72;74.81;99844.66;3048030;22;45754;-84
2022/11/16 07:34:22;;;;;;;;;6.50;3.00;;;;;11.73;74.94;99841.13;3059418;22;45084;-84
2022/11/16 07:35:33;;;;;;;;;4.75;4.75;;;;;11.76;74.90;99848.81;3058631;22;46500;-85
2022/11/16 07:36:43;;;;;;;;;4.00;4.00;;;;;11.79;74.86;99848.69;3059677;22;45202;-85
2022/11/16 07:37:53;;;;;;;;;3.75;3.00;;;;;11.81;74.62;99845.03;3059497;22;46173;-85
2022/11/16 07:39:05;;;;;;;;;4.50;3.00;;;;;11.83;74.70;99844.94;3043366;22;45089;-85
2022/11/16 07:40:16;;;;;;;;;7.75;4.00;;;;;11.84;74.69;99838.75;3048210;22;46136;-85
2022/11/16 07:41:26;;;;;;;;;8.00;3.25;;;;;11.86;74.80;99844.78;3059818;22;45248;-85
2022/11/16 07:42:36;;;;;;;;;3.50;1.25;;;;;11.88;74.94;99839.44;3059529;22;46205;-85
2022/11/16 07:43:47;;;;;;;;;3.50;2.50;;;;;11.91;74.54;99844.53;3042744;22;45191;-85
2022/11/16 07:44:57;;;;;;;;;3.50;2.25;;;;;11.92;74.58;99843.63;3032168;22;47217;-85
2022/11/16 07:46:13;;;;;;;;;4.75;3.75;;;;;11.95;74.90;99845.25;3032395;22;45175;-85
2022/11/16 07:47:23;;;;;;;;;3.50;1.75;;;;;11.97;74.65;99844.22;3048808;22;45603;-85
2022/11/16 07:48:34;;;;;;;;;3.75;2.25;;;;;12.00;74.65;99845.84;3059478;22;45099;-84
2022/11/16 07:49:44;;;;;;;;;5.00;2.00;;;;;12.01;74.32;99842.28;3042915;22;47824;-85
2022/11/16 07:51:07;;;;;;;;;3.25;3.25;;;;;12.01;74.57;99829.97;3032323;22;45248;-85
2022/11/16 07:52:17;;;;;;;;;3.00;2.00;;;;;12.04;74.49;99837.69;3050852;22;46221;-85
2022/11/16 07:53:29;;;;;;;;;3.50;1.00;;;;;12.05;74.46;99833.25;3058453;22;45289;-85
2022/11/16 07:54:40;;;;;;;;;1.50;1.00;;;;;12.07;74.81;99833.19;3042929;22;48155;-85
2022/11/16 07:55:52;;;;;;;;;2.50;2.50;;;;;12.11;74.44;99834.72;3046586;22;44578;-85
2022/11/16 07:57:02;;;;;;;;;5.00;3.00;;;;;12.13;74.33;99836.38;3058365;22;45693;-84
2022/11/16 07:58:13;;;;;;;;;5.00;1.50;;;;;12.14;74.45;99834.59;3041366;22;45254;-85
2022/11/16 07:59:23;;;;;;;;;4.75;3.25;;;;;12.17;74.56;99836.22;3047338;22;46368;-84
2022/11/16 08:00:33;;;;;;;;;4.50;2.50;;;;;12.19;74.48;99831.72;3041667;22;45228;-84
2022/11/16 08:01:46;;;;;;;;;6.25;2.00;;;;;12.21;74.54;99835.09;3030433;22;47084;-85
2022/11/16 08:02:56;;;;;;;;;1.50;1.50;;;;;12.24;74.38;99840.22;3032859;22;45247;-84
2022/11/16 08:04:06;;;;;;;;;4.50;4.50;;;;;12.26;74.27;99838.34;3030650;22;47866;-84
2022/11/16 08:05:17;;;;;;;;;2.50;2.25;;;;;12.29;74.27;99838.19;3048219;22;45153;-85
2022/11/16 08:06:30;;;;;;;;;3.00;2.00;;;;;12.31;74.10;99846.84;3059017;22;45720;-85
2022/11/16 08:07:40;;;;;;;;;4.50;3.50;;;;;12.33;74.32;99850.25;3059610;22;45150;-84
2022/11/16 08:08:50;;;;;;;;;5.25;2.75;;;;;12.35;73.91;99842.25;3058799;22;45240;-85
2022/11/16 08:10:01;;;;;;;;;4.50;3.00;;;;;12.37;74.54;99843.88;3043075;22;45230;-84
2022/11/16 08:11:12;;;;;;;;;4.00;2.50;;;;;12.39;74.17;99843.81;3046567;22;45238;-85
2022/11/16 08:12:23;;;;;;;;;3.75;1.75;;;;;12.41;74.24;99843.69;3059281;22;44573;-84
2022/11/16 08:13:35;;;;;;;;;2.25;2.00;;;;;12.42;73.82;99840.97;3042835;22;47267;-85
2022/11/16 08:14:45;;;;;;;;;2.00;2.00;;;;;12.44;73.87;99841.75;3032870;22;45482;-85
2022/11/16 08:16:06;;;;;;;;;3.25;2.75;;;;;12.44;73.97;99841.75;3047381;22;46094;-84
2022/11/16 08:17:17;;;;;;;;;4.00;1.25;;;;;12.45;74.10;99842.59;3043029;22;45314;-84
2022/11/16 08:18:28;;;;;;;;;3.25;3.25;;;;;12.47;73.95;99836.28;3047462;22;47211;-84
2022/11/16 08:19:39;;;;;;;;;4.25;2.00;;;;;12.51;74.09;99841.41;3059514;22;45288;-84
2022/11/16 08:20:49;;;;;;;;;4.50;3.00;;;;;12.52;73.68;99843.13;3058714;22;45483;-84
2022/11/16 08:21:59;;;;;;;;;5.75;2.00;;;;;12.55;73.95;99845.56;3042955;22;44617;-84
2022/11/16 08:23:10;;;;;;;;;2.00;2.00;;;;;12.56;73.93;99840.22;3047593;22;45400;-85
2022/11/16 08:24:20;;;;;;;;;5.25;3.50;;;;;12.58;73.95;99833.06;3058958;22;45425;-84
2022/11/16 08:25:30;;;;;;;;;5.75;3.00;;;;;12.62;73.94;99832.91;3042374;22;47732;-85
2022/11/16 08:26:41;;;;;;;;;6.00;2.75;;;;;12.65;73.64;99833.56;3032267;22;45289;-84
2022/11/16 08:27:51;;;;;;;;;1.25;1.25;;;;;12.66;73.79;99832.66;3031766;22;46964;-85
2022/11/16 08:29:01;;;;;;;;;3.25;2.75;;;;;12.69;73.73;99834.25;3032071;22;46773;-85
2022/11/16 08:30:12;;;;;;;;;6.50;1.75;;;;;12.70;73.61;99842.06;3032114;22;46936;-84
2022/11/16 08:31:25;;;;;;;;;6.50;1.75;;;;;12.72;73.58;99841.97;3031584;22;45179;-85
2022/11/16 08:32:36;;;;;;;;;2.50;2.50;;;;;12.74;73.75;99848.00;3048266;22;46464;-85
2022/11/16 08:33:50;;;;;;;;;3.00;2.25;;;;;12.76;73.51;99843.53;3042832;22;44640;-84
2022/11/16 08:35:01;;;;;;;;;4.00;1.25;;;;;12.76;73.18;99842.66;3048362;22;45457;-85
2022/11/16 08:36:15;;;;;;;;;6.75;2.75;;;;;12.77;73.50;99850.47;3042318;22;45286;-85
2022/11/16 08:37:27;;;;;;;;;7.25;3.50;;;;;12.80;73.45;99846.81;3048359;22;46148;-85
2022/11/16 08:38:39;;;;;;;;;5.00;2.75;;;;;12.80;73.33;99844.19;3043033;22;45327;-85
2022/11/16 08:39:49;;;;;;;;;5.50;3.75;;;;;12.80;73.20;99852.94;3041924;22;47020;-85
2022/11/16 08:41:00;;;;;;;;;4.50;2.75;;;;;12.83;73.40;99847.50;3031960;22;45267;-85
2022/11/16 08:42:10;;;;;;;;;6.50;3.50;;;;;12.85;73.12;99846.56;3047339;22;45469;-85
2022/11/16 08:43:20;;;;;;;;;4.75;2.00;;;;;12.87;73.60;99852.59;3042687;22;45223;-85
2022/11/16 08:44:31;;;;;;;;;5.25;3.00;;;;;12.89;73.37;99845.47;3047252;22;46365;-85
2022/11/16 08:45:46;;;;;;;;;5.25;4.00;;;;;12.92;73.12;99850.53;3059750;22;45079;-85
2022/11/16 08:46:56;;;;;;;;;3.75;3.75;;;;;12.92;72.84;99846.13;3042929;22;48206;-85
2022/11/16 08:48:07;;;;;;;;;4.25;3.00;;;;;12.92;73.13;99845.28;3048043;22;45266;-84
2022/11/16 08:49:17;;;;;;;;;2.50;2.50;;;;;12.93;72.91;99853.13;3041870;22;48136;-85
2022/11/16 08:50:27;;;;;;;;;2.25;2.00;;;;;12.96;73.28;99845.97;3048019;22;44632;-85
2022/11/16 08:51:39;;;;;;;;;6.75;3.75;;;;;12.95;72.85;99845.09;3059485;22;45248;-85
2022/11/16 08:52:49;;;;;;;;;6.00;4.25;;;;;12.97;73.13;99842.38;3059373;22;45264;-85
2022/11/16 08:54:02;;;;;;;;;9.00;3.00;;;;;12.99;72.90;99843.16;3058506;22;45209;-85
2022/11/16 08:55:12;;;;;;;;;3.75;3.00;;;;;13.01;73.09;99839.47;3042084;22;45709;-84
2022/11/16 08:56:25;;;;;;;;;3.25;2.50;;;;;13.02;72.89;99840.31;3047597;22;45350;-87
2022/11/16 08:57:36;;;;;;;;;8.25;4.00;;;;;13.02;72.70;99848.22;3042923;22;45247;-87
2022/11/16 08:58:46;;;;;;;;;6.75;3.50;;;;;13.02;72.69;99838.53;3031862;22;46907;-87
2022/11/16 08:59:56;;;;;;;;;2.25;1.50;;;;;13.05;72.78;99837.50;3031657;22;45299;-86
2022/11/16 09:01:09;;;;;;;;;5.50;4.00;;;;;13.08;73.03;99841.75;3031866;22;47146;-87
2022/11/16 09:02:24;;;;;;;;;10.25;4.00;;;;;13.10;73.08;99839.88;3048222;22;44647;-88
2022/11/16 09:03:36;;;;;;;;;4.00;4.00;;;;;13.14;73.12;99839.59;3058707;22;46207;-88
2022/11/16 09:04:46;;;;;;;;;6.25;3.50;;;;;13.18;72.25;99834.16;3042211;22;45263;-88
2022/11/16 09:05:58;;;;;;;;;4.00;2.00;;;;;13.22;72.88;99833.03;3046971;22;45211;-87
2022/11/16 09:07:08;;;;;;;;;5.25;4.00;;;;;13.24;72.79;99839.91;3059284;22;45166;-88
2022/11/16 09:08:19;;;;;;;;;3.25;2.75;;;;;13.28;72.55;99843.25;3058548;22;47663;-87
2022/11/16 09:09:29;;;;;;;;;3.00;3.00;;;;;13.31;72.51;99836.94;3042850;22;45152;-88
2022/11/16 09:10:39;;;;;;;;;5.25;3.00;;;;;13.32;72.20;99833.34;3047113;22;45999;-88
2022/11/16 09:11:52;;;;;;;;;5.00;4.50;;;;;13.36;72.20;99826.91;3042933;22;45187;-87
2022/11/16 09:13:02;;;;;;;;;5.75;3.00;;;;;13.37;72.17;99828.63;3047072;22;47842;-88
2022/11/16 09:14:13;;;;;;;;;5.25;4.00;;;;;13.37;72.16;99813.66;3058693;22;45195;-88
2022/11/16 09:15:23;;;;;;;;;2.00;1.00;;;;;13.36;72.05;99816.38;3042370;22;47898;-88
2022/11/16 09:16:33;;;;;;;;;6.50;3.75;;;;;13.36;72.16;99805.81;3032002;22;44618;-87
2022/11/16 09:17:44;;;;;;;;;4.25;3.00;;;;;13.37;72.29;99813.66;3031894;22;47280;-89
2022/11/16 09:18:55;;;;;;;;;3.00;2.25;;;;;13.38;72.17;99817.16;3047222;22;45211;-88
2022/11/16 09:20:06;;;;;;;;;4.25;3.75;;;;;13.41;72.37;99813.47;3042764;22;47026;-88
2022/11/16 09:21:18;;;;;;;;;5.25;3.50;;;;;13.42;72.02;99815.16;3047599;22;45300;-88
2022/11/16 09:22:29;;;;;;;;;5.25;4.00;;;;;13.41;72.02;99811.66;3042655;22;47720;-88
2022/11/16 09:23:40;;;;;;;;;2.25;2.25;;;;;13.39;72.17;99827.59;3032053;22;45201;-88
2022/11/16 09:24:51;;;;;;;;;7.25;3.25;;;;;13.40;71.93;99825.81;3047217;22;45384;-88
2022/11/16 09:26:04;;;;;;;;;5.50;3.50;;;;;13.42;72.06;99825.72;3042462;22;45199;-87
2022/11/16 09:27:15;;;;;;;;;5.75;3.75;;;;;13.41;71.94;99818.75;3032664;22;47201;-86
2022/11/16 09:28:26;;;;;;;;;5.00;3.00;;;;;13.43;72.15;99824.78;3043543;22;45163;-87
2022/11/16 09:29:36;;;;;;;;;3.50;3.50;;;;;13.43;72.20;99828.28;3031155;22;47550;-88
2022/11/16 09:30:49;;;;;;;;;3.25;2.50;;;;;13.46;71.49;99825.44;3047810;22;44538;-87
2022/11/16 09:32:01;;;;;;;;;3.25;2.00;;;;;13.45;71.39;99825.53;3042685;22;46968;-87
2022/11/16 09:33:12;;;;;;;;;5.50;3.75;;;;;13.45;71.80;99821.13;3032081;22;45279;-88
2022/11/16 09:34:22;;;;;;;;;6.75;3.25;;;;;13.46;71.87;99821.94;3042500;22;47881;-87
2022/11/16 09:35:34;;;;;;;;;4.50;3.75;;;;;13.47;71.16;99821.88;3047681;22;44542;-88
2022/11/16 09:36:44;;;;;;;;;3.00;3.00;;;;;13.46;71.65;99822.81;3059125;22;46539;-87
2022/11/16 09:37:54;;;;;;;;;4.00;4.00;;;;;13.46;71.55;99827.22;3042353;22;44620;-88
2022/11/16 09:39:04;;;;;;;;;5.25;3.50;;;;;13.43;71.51;99816.88;3047514;22;45446;-86
2022/11/16 09:40:15;;;;;;;;;6.00;3.75;;;;;13.44;71.54;99813.28;3059212;22;45200;-85
2022/11/16 09:41:44;;;;;;;;;5.50;4.00;;;;;13.40;70.79;99812.63;3042562;22;46959;-85
2022/11/16 09:43:11;;;;;;;;;4.25;4.00;;;;;13.38;71.78;99804.78;3035903;22;44614;-87
2022/11/16 09:44:30;;;;;;;;;5.50;2.25;;;;;13.40;71.67;99812.63;3051543;22;45392;-87
2022/11/16 09:46:20;;;;;;;;;6.50;3.00;;;;;13.41;72.03;99805.56;3042932;22;44634;-87
2022/11/16 09:47:43;;;;;;;;;3.00;2.75;;;;;13.44;72.16;99808.84;3039174;22;47321;-87
2022/11/16 09:48:59;;;;;;;;;4.50;2.75;;;;;13.48;72.37;99805.06;3033883;22;45177;-87
2022/11/16 09:50:38;;;;;;;;;4.25;3.00;;;;;13.51;71.79;99793.47;3031273;22;48107;-88
2022/11/16 09:51:53;;;;;;;;;3.25;3.00;;;;;13.54;71.91;99806.50;3038354;22;45298;-87
2022/11/16 09:53:42;;;;;;;;;4.50;3.00;;;;;13.57;71.55;99792.31;3053877;22;45602;-87
2022/11/16 09:54:57;;;;;;;;;6.50;3.00;;;;;13.61;71.86;99799.09;3058071;22;45294;-87
2022/11/16 09:56:12;;;;;;;;;2.50;2.50;;;;;13.67;71.94;99798.72;3042007;22;47274;-87
2022/11/16 09:57:31;;;;;;;;;1.75;1.75;;;;;13.74;71.64;99791.25;3032005;22;45164;-87
2022/11/16 09:58:56;;;;;;;;;3.00;2.50;;;;;13.82;71.93;99801.34;3031729;22;48017;-86
2022/11/16 10:00:24;;;;;;;;;3.00;2.25;;;;;13.88;71.44;99790.41;3050299;22;45302;-87
2022/11/16 10:01:42;;;;;;;;;1.00;1.00;;;;;13.94;71.67;99795.31;3058681;22;45422;-87
2022/11/16 10:03:02;;;;;;;;;3.50;2.25;;;;;14.00;71.75;99803.81;3058596;22;44621;-87
2022/11/16 10:04:23;;;;;;;;;7.00;1.75;;;;;14.03;70.96;99799.16;3057395;22;45230;-87
2022/11/16 10:05:51;;;;;;;;;3.50;2.00;;;;;14.09;71.16;99799.72;3057575;22;45250;-87
2022/11/16 10:07:18;;;;;;;;;2.75;2.75;;;;;14.13;71.23;99799.44;3040818;22;47551;-87
2022/11/16 10:08:50;;;;;;;;;3.00;0.00;;;;;14.18;70.90;99805.28;3034801;22;45394;-88
2022/11/16 10:10:00;;;;;;;;;7.00;2.00;;;;;14.21;70.76;99792.81;3035854;22;48057;-86
2022/11/16 10:11:45;;;;;;;;;1.25;1.25;;;;;14.23;70.65;99793.56;3046711;22;45205;-86
2022/11/16 10:13:22;;;;;;;;;3.50;2.75;;;;;14.23;70.75;99788.28;3040974;22;47040;-87
2022/11/16 10:15:06;;;;;;;;;2.00;2.00;;;;;14.24;70.77;99780.25;3052620;22;45632;-87
2022/11/16 10:16:41;;;;;;;;;2.50;2.25;;;;;14.23;70.65;99783.84;3058486;22;46245;-86
2022/11/16 10:18:22;;;;;;;;;2.00;2.00;;;;;14.25;70.30;99779.31;3042969;22;44641;-87
2022/11/16 10:19:53;;;;;;;;;2.75;1.50;;;;;14.21;70.15;99784.88;3054278;22;46210;-88
2022/11/16 10:21:22;;;;;;;;;2.75;2.00;;;;;14.18;70.39;99781.50;3058011;22;45252;-87
2022/11/16 10:23:01;;;;;;;;;2.75;1.00;;;;;14.17;70.12;99786.88;3042492;22;48127;-88
2022/11/16 10:24:20;;;;;;;;;5.75;2.00;;;;;14.14;70.50;99790.56;3038045;22;44624;-88
2022/11/16 10:25:41;;;;;;;;;6.50;2.00;;;;;14.12;70.46;99792.47;3033695;22;47247;-88
2022/11/16 10:27:19;;;;;;;;;3.00;2.50;;;;;14.10;69.86;99794.34;3033774;22;44578;-87
2022/11/16 10:28:57;;;;;;;;;1.25;1.25;;;;;14.06;69.52;99792.84;3053525;22;46595;-87
2022/11/16 10:30:15;;;;;;;;;4.00;1.00;;;;;14.02;70.05;99786.06;3059059;22;44735;-88
2022/11/16 10:31:57;;;;;;;;;2.50;1.00;;;;;14.01;69.94;99787.00;3059043;22;45341;-87
2022/11/16 10:33:15;;;;;;;;;0.25;0.25;;;;;14.00;70.68;99780.84;3042733;22;45237;-86
2022/11/16 10:34:35;;;;;;;;;4.50;1.25;;;;;14.01;70.73;99790.50;3048419;22;45534;-87
2022/11/16 10:35:52;;;;;;;;;2.50;1.75;;;;;14.05;70.98;99791.16;3042111;22;45350;-87
2022/11/16 10:37:07;;;;;;;;;1.00;1.00;;;;;14.07;70.18;99799.84;3033178;22;47337;-87
2022/11/16 10:38:26;;;;;;;;;4.25;1.00;;;;;14.11;70.70;99803.13;3032706;22;45262;-87
2022/11/16 10:39:39;;;;;;;;;1.50;0.00;;;;;14.13;70.70;99798.56;3049282;22;45267;-87
2022/11/16 10:40:54;;;;;;;;;2.25;1.00;;;;;14.14;70.33;99795.84;3042322;22;45735;-87
2022/11/16 10:42:10;;;;;;;;;1.00;1.00;;;;;14.18;70.28;99797.34;3047814;22;45578;-86
2022/11/16 10:43:28;;;;;;;;;2.00;2.00;;;;;14.21;70.41;99796.31;3042782;22;45452;-87
2022/11/16 10:44:46;;;;;;;;;1.00;1.00;;;;;14.24;70.49;99792.63;3049508;22;45521;-87
2022/11/16 10:46:35;;;;;;;;;0.75;0.75;;;;;14.29;70.25;99793.19;3059184;22;44658;-87
2022/11/16 10:47:58;;;;;;;;;1.25;1.00;;;;;14.32;70.10;99794.78;3011934;22;46233;-86
2022/11/16 10:49:26;;;;;;;;;2.00;2.00;;;;;14.35;70.44;99798.06;3040588;22;45369;-87
2022/11/16 10:50:39;;;;;;;;;3.00;1.00;;;;;14.38;69.61;99791.72;3050772;22;45714;-87
2022/11/16 10:51:49;;;;;;;;;1.00;1.00;;;;;14.39;69.91;99794.28;3059084;22;45388;-86
2022/11/16 10:53:00;;;;;;;;;3.50;1.00;;;;;14.43;70.12;99791.44;3058976;22;45307;-87
2022/11/16 10:54:15;;;;;;;;;2.00;2.00;;;;;14.47;69.81;99783.19;3042696;22;44652;-86
2022/11/16 10:55:27;;;;;;;;;3.75;2.00;;;;;14.50;69.93;99785.66;3042035;22;47067;-87
2022/11/16 10:56:41;;;;;;;;;2.50;1.00;;;;;14.53;69.63;99781.97;3032076;22;45449;-87
2022/11/16 10:58:02;;;;;;;;;1.25;1.00;;;;;14.56;68.64;99767.69;3031890;22;47064;-87
2022/11/16 10:59:14;;;;;;;;;1.75;1.00;;;;;14.60;69.48;99767.38;3033594;22;45186;-87
2022/11/16 11:00:36;;;;;;;;;3.00;1.25;;;;;14.65;69.59;99766.22;3031898;22;46522;-86
2022/11/16 11:01:49;;;;;;;;;4.50;1.00;;;;;14.68;68.24;99766.03;3049851;22;45292;-87
2022/11/16 11:02:59;;;;;;;;;3.25;2.00;;;;;14.71;68.89;99761.41;3042171;22;48125;-87
2022/11/16 11:04:24;;;;;;;;;2.00;1.00;;;;;14.77;69.26;99772.50;3046708;22;44778;-87
2022/11/16 11:05:35;;;;;;;;;3.00;1.75;;;;;14.79;68.90;99763.50;3059264;22;45559;-87
2022/11/16 11:06:50;;;;;;;;;2.25;2.00;;;;;14.83;68.47;99758.88;3041727;22;45308;-87
2022/11/16 11:08:22;;;;;;;;;1.25;1.25;;;;;14.86;68.82;99758.72;3032786;22;47809;-87
2022/11/16 11:09:36;;;;;;;;;2.00;2.00;;;;;14.91;68.90;99766.34;3035803;22;44618;-86
2022/11/16 11:10:57;;;;;;;;;1.00;1.00;;;;;14.92;68.47;99762.72;3032074;22;47626;-88
2022/11/16 11:13:45;;;;;;;;;3.50;1.25;;;;;14.96;68.29;99759.75;3057028;22;45658;-87
2022/11/16 11:15:02;;;;;;;;;2.25;0.75;;;;;14.95;67.66;99754.59;3042003;22;45235;-87
2022/11/16 11:16:15;;;;;;;;;1.75;0.75;;;;;14.95;68.33;99747.50;3041998;22;47198;-87
2022/11/16 11:17:27;;;;;;;;;3.50;1.00;;;;;14.97;68.05;99742.09;3047675;22;45328;-87
2022/11/16 11:18:37;;;;;;;;;1.75;0.00;;;;;14.99;66.95;99742.00;3058259;22;45466;-87
2022/11/16 11:19:57;;;;;;;;;2.00;1.00;;;;;14.99;67.84;99744.66;3058132;22;44589;-87
2022/11/16 11:21:19;;;;;;;;;1.00;1.00;;;;;15.00;67.80;99747.19;3042303;22;47184;-87
2022/11/16 11:22:56;;;;;;;;;0.00;0.00;;;;;15.01;67.66;99754.19;3033923;22;45850;-87
2022/11/16 11:24:15;;;;;;;;;2.75;1.00;;;;;15.03;67.54;99749.63;3052873;22;46580;-87
2022/11/16 11:25:59;;;;;;;;;1.50;1.50;;;;;15.07;67.37;99755.56;3042514;22;45343;-87
2022/11/16 11:27:10;;;;;;;;;2.00;0.50;;;;;15.08;67.23;99746.69;3007204;22;45413;-87
2022/11/16 11:28:27;;;;;;;;;0.50;0.25;;;;;15.08;67.68;99741.38;3052887;22;44759;-87
2022/11/16 11:29:41;;;;;;;;;2.25;1.00;;;;;15.09;67.37;99744.88;3040968;22;46904;-87
2022/11/16 11:30:52;;;;;;;;;3.00;0.00;;;;;15.12;67.43;99742.00;3031211;22;45247;-90
2022/11/16 11:32:17;;;;;;;;;1.00;1.00;;;;;15.14;67.86;99737.44;3030006;22;47650;-86
2022/11/16 11:33:48;;;;;;;;;2.00;0.75;;;;;15.16;67.46;99732.94;3050189;22;45176;-87
2022/11/16 11:35:00;;;;;;;;;0.25;0.00;;;;;15.19;67.70;99727.41;3041842;22;47257;-87
2022/11/16 11:36:17;;;;;;;;;1.25;1.25;;;;;15.22;67.58;99723.69;3047164;22;45220;-87
2022/11/16 11:37:38;;;;;;;;;4.75;2.00;;;;;15.25;67.77;99721.69;3058824;22;45377;-87
2022/11/16 11:38:59;;;;;;;;;3.50;0.25;;;;;15.28;66.90;99726.75;3058898;22;44640;-87
2022/11/16 11:40:19;;;;;;;;;3.00;0.75;;;;;15.31;67.17;99720.41;3041985;22;47038;-87
2022/11/16 11:41:38;;;;;;;;;1.00;1.00;;;;;15.33;67.08;99723.81;3049516;22;45417;-87
2022/11/16 11:42:57;;;;;;;;;2.00;0.50;;;;;15.35;66.95;99729.00;3042203;22;48272;-87
2022/11/16 11:44:16;;;;;;;;;3.75;1.25;;;;;15.36;66.75;99722.75;3033672;22;44652;-85
2022/11/16 11:45:44;;;;;;;;;6.00;1.25;;;;;15.37;66.90;99724.44;3049429;22;45262;-85
2022/11/16 11:47:05;;;;;;;;;1.00;1.00;;;;;15.38;66.85;99724.31;3042927;22;45266;-86
2022/11/16 11:48:40;;;;;;;;;3.50;1.50;;;;;15.40;67.07;99724.22;3048404;22;45642;-87
2022/11/16 11:50:00;;;;;;;;;1.75;1.00;;;;;15.41;66.55;99725.91;3042988;22;45181;-86
2022/11/16 11:51:34;;;;;;;;;2.25;1.00;;;;;15.41;66.44;99717.97;3033898;22;48448;-87
2022/11/16 11:53:11;;;;;;;;;1.50;1.50;;;;;15.42;66.23;99709.06;3037319;22;45124;-87
2022/11/16 11:54:27;;;;;;;;;4.00;1.00;;;;;15.39;65.56;99706.63;3053715;22;46121;-87
2022/11/16 11:55:38;;;;;;;;;3.50;1.00;;;;;15.37;65.93;99713.84;3059556;22;45220;-87
2022/11/16 11:56:48;;;;;;;;;1.00;1.00;;;;;15.36;65.87;99714.81;3042329;22;48223;-87
2022/11/16 11:58:02;;;;;;;;;3.25;2.00;;;;;15.35;65.59;99713.09;3032141;22;45251;-87
2022/11/16 11:59:20;;;;;;;;;0.50;0.00;;;;;15.34;66.00;99706.97;3047588;22;45236;-87